<?xml version="1.0" encoding="UTF-8" standalone="no" ?>
<gpx xmlns="http://www.topografix.com/GPX/1/1" xmlns:xsi="http://www.w3.org/2001/XMLSchema-instance" xsi:schemaLocation="http://www.topografix.com/GPX/1/1 http://www.topografix.com/GPX/1/1/gpx.xsd" version="1.1" creator="VisuGPX - https://www.visugpx.com">
  <metadata>
    <name>balade st Genes / vue massif sancy</name>
    <desc><![CDATA[paysages degagés, montee au départ, roulant. 
]]></desc>
  </metadata>
  <trk>
    <name><![CDATA[2013-03-22 15:52]]></name>
    <desc><![CDATA[<h1>OruxMaps</h1><br /><hr align="center" width="480" style="height: 2px; width: 517px"/><h2>Nom: 2013-03-22 15:52</h2><br /><p>Temps de départ: 03/22/2013 15:54</p><p>Temps d'arrivée: 03/22/2013 16:19</p><p>Distance: 3,9 km (00:25)</p><p>Temps déplacement: 00:17</p><p>Vitesse moyenne: 9,2 km/h</p><p>Vitesse moyenne: 13,1 km/h</p><p>Vitess Max.: 34,6 km/h</p><p>Altitude minimale: 864 m</p><p>Altitude maximale: 966 m</p><p>Vitesse d'élévation: 450,5 m/h</p><p>Vitesse de descente: -474,6 m/h</p><p>Gain Altitude: 55 m</p><p>Perte Altitude: -111 m</p><p>Temps d'élévation: 00:07</p><p>Temps de descente: 00:14</p><hr align="center" width="480" style="height: 2px; width: 517px"/>]]></desc>
    <trkseg>
      <trkpt lat="45.72778" lon="2.9922">
        <ele>932.63</ele>
        <time>2013-03-22T14:54:29Z</time>
      </trkpt>
      <trkpt lat="45.72793" lon="2.99207">
        <ele>936.06</ele>
        <time>2013-03-22T14:56:08Z</time>
      </trkpt>
      <trkpt lat="45.72811" lon="2.99203">
        <ele>935.5</ele>
        <time>2013-03-22T14:56:16Z</time>
      </trkpt>
      <trkpt lat="45.72796" lon="2.99185">
        <ele>932.12</ele>
        <time>2013-03-22T14:56:21Z</time>
      </trkpt>
      <trkpt lat="45.7278" lon="2.9917">
        <ele>925.87</ele>
        <time>2013-03-22T14:56:28Z</time>
      </trkpt>
      <trkpt lat="45.72761" lon="2.99167">
        <ele>918.84</ele>
        <time>2013-03-22T14:56:35Z</time>
      </trkpt>
      <trkpt lat="45.72742" lon="2.99169">
        <ele>922.3</ele>
        <time>2013-03-22T15:02:02Z</time>
      </trkpt>
      <trkpt lat="45.72735" lon="2.99197">
        <ele>922</ele>
        <time>2013-03-22T15:02:07Z</time>
      </trkpt>
      <trkpt lat="45.72724" lon="2.99221">
        <ele>920.66</ele>
        <time>2013-03-22T15:02:14Z</time>
      </trkpt>
      <trkpt lat="45.72719" lon="2.99247">
        <ele>919.69</ele>
        <time>2013-03-22T15:02:20Z</time>
      </trkpt>
      <trkpt lat="45.72712" lon="2.99273">
        <ele>919.33</ele>
        <time>2013-03-22T15:02:26Z</time>
      </trkpt>
      <trkpt lat="45.72712" lon="2.99301">
        <ele>921.27</ele>
        <time>2013-03-22T15:02:35Z</time>
      </trkpt>
      <trkpt lat="45.72708" lon="2.99328">
        <ele>923.73</ele>
        <time>2013-03-22T15:02:46Z</time>
      </trkpt>
      <trkpt lat="45.72704" lon="2.99354">
        <ele>927.68</ele>
        <time>2013-03-22T15:02:57Z</time>
      </trkpt>
      <trkpt lat="45.72699" lon="2.9938">
        <ele>930.62</ele>
        <time>2013-03-22T15:03:08Z</time>
      </trkpt>
      <trkpt lat="45.72696" lon="2.99406">
        <ele>932.57</ele>
        <time>2013-03-22T15:03:20Z</time>
      </trkpt>
      <trkpt lat="45.72692" lon="2.99431">
        <ele>934.85</ele>
        <time>2013-03-22T15:03:33Z</time>
      </trkpt>
      <trkpt lat="45.72687" lon="2.99456">
        <ele>932.36</ele>
        <time>2013-03-22T15:03:45Z</time>
      </trkpt>
      <trkpt lat="45.72682" lon="2.99481">
        <ele>931.98</ele>
        <time>2013-03-22T15:03:57Z</time>
      </trkpt>
      <trkpt lat="45.7268" lon="2.99508">
        <ele>933.64</ele>
        <time>2013-03-22T15:04:10Z</time>
      </trkpt>
      <trkpt lat="45.72673" lon="2.99534">
        <ele>934.07</ele>
        <time>2013-03-22T15:04:21Z</time>
      </trkpt>
      <trkpt lat="45.72671" lon="2.9956">
        <ele>936.78</ele>
        <time>2013-03-22T15:04:34Z</time>
      </trkpt>
      <trkpt lat="45.72667" lon="2.99586">
        <ele>939.28</ele>
        <time>2013-03-22T15:05:25Z</time>
      </trkpt>
      <trkpt lat="45.72662" lon="2.99611">
        <ele>942.64</ele>
        <time>2013-03-22T15:05:38Z</time>
      </trkpt>
      <trkpt lat="45.72658" lon="2.99638">
        <ele>945.41</ele>
        <time>2013-03-22T15:05:50Z</time>
      </trkpt>
      <trkpt lat="45.72656" lon="2.99664">
        <ele>945.74</ele>
        <time>2013-03-22T15:06:02Z</time>
      </trkpt>
      <trkpt lat="45.72656" lon="2.9969">
        <ele>947.37</ele>
        <time>2013-03-22T15:06:14Z</time>
      </trkpt>
      <trkpt lat="45.7265" lon="2.99717">
        <ele>950.35</ele>
        <time>2013-03-22T15:06:26Z</time>
      </trkpt>
      <trkpt lat="45.72647" lon="2.99745">
        <ele>951.45</ele>
        <time>2013-03-22T15:06:36Z</time>
      </trkpt>
      <trkpt lat="45.72644" lon="2.99772">
        <ele>949.48</ele>
        <time>2013-03-22T15:06:47Z</time>
      </trkpt>
      <trkpt lat="45.72638" lon="2.99797">
        <ele>954.02</ele>
        <time>2013-03-22T15:07:01Z</time>
      </trkpt>
      <trkpt lat="45.72633" lon="2.99823">
        <ele>955.83</ele>
        <time>2013-03-22T15:07:11Z</time>
      </trkpt>
      <trkpt lat="45.72625" lon="2.99848">
        <ele>955.97</ele>
        <time>2013-03-22T15:07:21Z</time>
      </trkpt>
      <trkpt lat="45.72621" lon="2.99873">
        <ele>956.25</ele>
        <time>2013-03-22T15:07:31Z</time>
      </trkpt>
      <trkpt lat="45.72613" lon="2.99901">
        <ele>955.52</ele>
        <time>2013-03-22T15:07:40Z</time>
      </trkpt>
      <trkpt lat="45.72609" lon="2.99927">
        <ele>957.4</ele>
        <time>2013-03-22T15:07:51Z</time>
      </trkpt>
      <trkpt lat="45.72604" lon="2.99953">
        <ele>959.41</ele>
        <time>2013-03-22T15:08:01Z</time>
      </trkpt>
      <trkpt lat="45.72601" lon="2.99981">
        <ele>963.73</ele>
        <time>2013-03-22T15:08:09Z</time>
      </trkpt>
      <trkpt lat="45.72599" lon="3.00006">
        <ele>966.03</ele>
        <time>2013-03-22T15:08:17Z</time>
      </trkpt>
      <trkpt lat="45.72598" lon="3.00033">
        <ele>966.35</ele>
        <time>2013-03-22T15:08:25Z</time>
      </trkpt>
      <trkpt lat="45.72589" lon="3.00062">
        <ele>966.32</ele>
        <time>2013-03-22T15:08:31Z</time>
      </trkpt>
      <trkpt lat="45.72586" lon="3.00091">
        <ele>965.6</ele>
        <time>2013-03-22T15:08:35Z</time>
      </trkpt>
      <trkpt lat="45.7258" lon="3.0012">
        <ele>964.21</ele>
        <time>2013-03-22T15:08:40Z</time>
      </trkpt>
      <trkpt lat="45.72584" lon="3.0015">
        <ele>961.57</ele>
        <time>2013-03-22T15:08:44Z</time>
      </trkpt>
      <trkpt lat="45.72591" lon="3.00176">
        <ele>958.45</ele>
        <time>2013-03-22T15:08:48Z</time>
      </trkpt>
      <trkpt lat="45.72595" lon="3.00207">
        <ele>955.21</ele>
        <time>2013-03-22T15:08:53Z</time>
      </trkpt>
      <trkpt lat="45.72595" lon="3.00235">
        <ele>953.44</ele>
        <time>2013-03-22T15:08:56Z</time>
      </trkpt>
      <trkpt lat="45.72601" lon="3.00261">
        <ele>953.39</ele>
        <time>2013-03-22T15:09:00Z</time>
      </trkpt>
      <trkpt lat="45.72606" lon="3.00289">
        <ele>947.83</ele>
        <time>2013-03-22T15:09:06Z</time>
      </trkpt>
      <trkpt lat="45.72613" lon="3.00315">
        <ele>944.88</ele>
        <time>2013-03-22T15:09:10Z</time>
      </trkpt>
      <trkpt lat="45.72621" lon="3.00344">
        <ele>942.15</ele>
        <time>2013-03-22T15:09:14Z</time>
      </trkpt>
      <trkpt lat="45.72626" lon="3.00369">
        <ele>939.96</ele>
        <time>2013-03-22T15:09:17Z</time>
      </trkpt>
      <trkpt lat="45.72634" lon="3.00398">
        <ele>935.74</ele>
        <time>2013-03-22T15:09:21Z</time>
      </trkpt>
      <trkpt lat="45.72642" lon="3.00422">
        <ele>932.58</ele>
        <time>2013-03-22T15:09:26Z</time>
      </trkpt>
      <trkpt lat="45.72651" lon="3.00452">
        <ele>931</ele>
        <time>2013-03-22T15:09:32Z</time>
      </trkpt>
      <trkpt lat="45.72652" lon="3.00481">
        <ele>929.76</ele>
        <time>2013-03-22T15:09:36Z</time>
      </trkpt>
      <trkpt lat="45.72655" lon="3.00506">
        <ele>928.82</ele>
        <time>2013-03-22T15:09:41Z</time>
      </trkpt>
      <trkpt lat="45.72659" lon="3.00532">
        <ele>924.6</ele>
        <time>2013-03-22T15:10:06Z</time>
      </trkpt>
      <trkpt lat="45.72679" lon="3.00535">
        <ele>924.78</ele>
        <time>2013-03-22T15:10:24Z</time>
      </trkpt>
      <trkpt lat="45.72697" lon="3.00522">
        <ele>925.96</ele>
        <time>2013-03-22T15:10:31Z</time>
      </trkpt>
      <trkpt lat="45.72714" lon="3.00513">
        <ele>927.52</ele>
        <time>2013-03-22T15:10:37Z</time>
      </trkpt>
      <trkpt lat="45.72736" lon="3.00514">
        <ele>929.61</ele>
        <time>2013-03-22T15:10:43Z</time>
      </trkpt>
      <trkpt lat="45.72754" lon="3.00514">
        <ele>930.89</ele>
        <time>2013-03-22T15:10:49Z</time>
      </trkpt>
      <trkpt lat="45.72773" lon="3.00517">
        <ele>930.78</ele>
        <time>2013-03-22T15:10:56Z</time>
      </trkpt>
      <trkpt lat="45.72753" lon="3.00514">
        <ele>931.26</ele>
        <time>2013-03-22T15:11:19Z</time>
      </trkpt>
      <trkpt lat="45.72732" lon="3.0051">
        <ele>930.48</ele>
        <time>2013-03-22T15:11:24Z</time>
      </trkpt>
      <trkpt lat="45.72714" lon="3.0051">
        <ele>929.86</ele>
        <time>2013-03-22T15:11:28Z</time>
      </trkpt>
      <trkpt lat="45.72696" lon="3.00522">
        <ele>929.26</ele>
        <time>2013-03-22T15:11:32Z</time>
      </trkpt>
      <trkpt lat="45.72679" lon="3.00534">
        <ele>928.65</ele>
        <time>2013-03-22T15:11:35Z</time>
      </trkpt>
      <trkpt lat="45.72658" lon="3.00548">
        <ele>927.68</ele>
        <time>2013-03-22T15:11:39Z</time>
      </trkpt>
      <trkpt lat="45.72641" lon="3.00562">
        <ele>926.96</ele>
        <time>2013-03-22T15:11:42Z</time>
      </trkpt>
      <trkpt lat="45.72628" lon="3.00581">
        <ele>925.79</ele>
        <time>2013-03-22T15:11:45Z</time>
      </trkpt>
      <trkpt lat="45.72617" lon="3.00609">
        <ele>924.35</ele>
        <time>2013-03-22T15:11:48Z</time>
      </trkpt>
      <trkpt lat="45.72611" lon="3.00638">
        <ele>922.78</ele>
        <time>2013-03-22T15:11:51Z</time>
      </trkpt>
      <trkpt lat="45.72605" lon="3.00664">
        <ele>921.45</ele>
        <time>2013-03-22T15:11:54Z</time>
      </trkpt>
      <trkpt lat="45.72599" lon="3.00693">
        <ele>919.91</ele>
        <time>2013-03-22T15:11:57Z</time>
      </trkpt>
      <trkpt lat="45.72593" lon="3.00724">
        <ele>918.4</ele>
        <time>2013-03-22T15:12:00Z</time>
      </trkpt>
      <trkpt lat="45.72585" lon="3.00755">
        <ele>917.49</ele>
        <time>2013-03-22T15:12:03Z</time>
      </trkpt>
      <trkpt lat="45.72577" lon="3.0078">
        <ele>916.88</ele>
        <time>2013-03-22T15:12:06Z</time>
      </trkpt>
      <trkpt lat="45.72568" lon="3.0081">
        <ele>916.37</ele>
        <time>2013-03-22T15:12:10Z</time>
      </trkpt>
      <trkpt lat="45.7256" lon="3.00837">
        <ele>915.25</ele>
        <time>2013-03-22T15:12:14Z</time>
      </trkpt>
      <trkpt lat="45.72552" lon="3.00863">
        <ele>913.84</ele>
        <time>2013-03-22T15:12:18Z</time>
      </trkpt>
      <trkpt lat="45.72545" lon="3.00892">
        <ele>912</ele>
        <time>2013-03-22T15:12:22Z</time>
      </trkpt>
      <trkpt lat="45.72539" lon="3.00925">
        <ele>911.15</ele>
        <time>2013-03-22T15:12:26Z</time>
      </trkpt>
      <trkpt lat="45.72541" lon="3.00954">
        <ele>909.17</ele>
        <time>2013-03-22T15:12:32Z</time>
      </trkpt>
      <trkpt lat="45.72561" lon="3.00961">
        <ele>905.2</ele>
        <time>2013-03-22T15:12:51Z</time>
      </trkpt>
      <trkpt lat="45.72581" lon="3.00963">
        <ele>905.6</ele>
        <time>2013-03-22T15:12:57Z</time>
      </trkpt>
      <trkpt lat="45.726" lon="3.00963">
        <ele>906.15</ele>
        <time>2013-03-22T15:13:02Z</time>
      </trkpt>
      <trkpt lat="45.7262" lon="3.00966">
        <ele>906.92</ele>
        <time>2013-03-22T15:13:07Z</time>
      </trkpt>
      <trkpt lat="45.72641" lon="3.00973">
        <ele>907.55</ele>
        <time>2013-03-22T15:13:12Z</time>
      </trkpt>
      <trkpt lat="45.72659" lon="3.00985">
        <ele>907.59</ele>
        <time>2013-03-22T15:13:16Z</time>
      </trkpt>
      <trkpt lat="45.72677" lon="3.01">
        <ele>907.09</ele>
        <time>2013-03-22T15:13:20Z</time>
      </trkpt>
      <trkpt lat="45.72695" lon="3.01017">
        <ele>906.21</ele>
        <time>2013-03-22T15:13:24Z</time>
      </trkpt>
      <trkpt lat="45.72713" lon="3.01031">
        <ele>905.81</ele>
        <time>2013-03-22T15:13:28Z</time>
      </trkpt>
      <trkpt lat="45.72728" lon="3.01045">
        <ele>905.66</ele>
        <time>2013-03-22T15:13:32Z</time>
      </trkpt>
      <trkpt lat="45.72746" lon="3.0106">
        <ele>906.56</ele>
        <time>2013-03-22T15:13:37Z</time>
      </trkpt>
      <trkpt lat="45.72762" lon="3.01073">
        <ele>907.22</ele>
        <time>2013-03-22T15:13:43Z</time>
      </trkpt>
      <trkpt lat="45.72779" lon="3.01087">
        <ele>908.04</ele>
        <time>2013-03-22T15:13:49Z</time>
      </trkpt>
      <trkpt lat="45.72797" lon="3.01103">
        <ele>908.84</ele>
        <time>2013-03-22T15:13:54Z</time>
      </trkpt>
      <trkpt lat="45.72813" lon="3.01118">
        <ele>908.98</ele>
        <time>2013-03-22T15:13:58Z</time>
      </trkpt>
      <trkpt lat="45.72829" lon="3.01132">
        <ele>908.9</ele>
        <time>2013-03-22T15:14:02Z</time>
      </trkpt>
      <trkpt lat="45.72846" lon="3.01149">
        <ele>909.21</ele>
        <time>2013-03-22T15:14:07Z</time>
      </trkpt>
      <trkpt lat="45.72863" lon="3.01164">
        <ele>909.35</ele>
        <time>2013-03-22T15:14:12Z</time>
      </trkpt>
      <trkpt lat="45.72882" lon="3.01179">
        <ele>909.44</ele>
        <time>2013-03-22T15:14:17Z</time>
      </trkpt>
      <trkpt lat="45.72901" lon="3.01193">
        <ele>909.98</ele>
        <time>2013-03-22T15:14:22Z</time>
      </trkpt>
      <trkpt lat="45.72918" lon="3.01203">
        <ele>909.96</ele>
        <time>2013-03-22T15:14:27Z</time>
      </trkpt>
      <trkpt lat="45.72936" lon="3.01216">
        <ele>909.33</ele>
        <time>2013-03-22T15:14:33Z</time>
      </trkpt>
      <trkpt lat="45.72918" lon="3.01201">
        <ele>909.11</ele>
        <time>2013-03-22T15:14:50Z</time>
      </trkpt>
      <trkpt lat="45.72898" lon="3.01187">
        <ele>909.12</ele>
        <time>2013-03-22T15:14:55Z</time>
      </trkpt>
      <trkpt lat="45.72881" lon="3.01174">
        <ele>909.02</ele>
        <time>2013-03-22T15:14:59Z</time>
      </trkpt>
      <trkpt lat="45.72864" lon="3.01161">
        <ele>909.06</ele>
        <time>2013-03-22T15:15:03Z</time>
      </trkpt>
      <trkpt lat="45.72846" lon="3.01146">
        <ele>909.12</ele>
        <time>2013-03-22T15:15:07Z</time>
      </trkpt>
      <trkpt lat="45.72827" lon="3.01129">
        <ele>908.8</ele>
        <time>2013-03-22T15:15:11Z</time>
      </trkpt>
      <trkpt lat="45.72807" lon="3.01112">
        <ele>908.5</ele>
        <time>2013-03-22T15:15:15Z</time>
      </trkpt>
      <trkpt lat="45.72791" lon="3.01099">
        <ele>908.15</ele>
        <time>2013-03-22T15:15:18Z</time>
      </trkpt>
      <trkpt lat="45.72775" lon="3.01085">
        <ele>906.94</ele>
        <time>2013-03-22T15:15:22Z</time>
      </trkpt>
      <trkpt lat="45.72758" lon="3.01098">
        <ele>905.81</ele>
        <time>2013-03-22T15:15:30Z</time>
      </trkpt>
      <trkpt lat="45.72757" lon="3.01129">
        <ele>905.91</ele>
        <time>2013-03-22T15:15:35Z</time>
      </trkpt>
      <trkpt lat="45.72758" lon="3.01156">
        <ele>906.18</ele>
        <time>2013-03-22T15:15:39Z</time>
      </trkpt>
      <trkpt lat="45.72758" lon="3.01183">
        <ele>905.71</ele>
        <time>2013-03-22T15:15:43Z</time>
      </trkpt>
      <trkpt lat="45.72753" lon="3.01212">
        <ele>906.52</ele>
        <time>2013-03-22T15:15:49Z</time>
      </trkpt>
      <trkpt lat="45.72743" lon="3.01235">
        <ele>908.88</ele>
        <time>2013-03-22T15:15:54Z</time>
      </trkpt>
      <trkpt lat="45.7273" lon="3.01257">
        <ele>908.84</ele>
        <time>2013-03-22T15:15:58Z</time>
      </trkpt>
      <trkpt lat="45.72721" lon="3.01281">
        <ele>909.34</ele>
        <time>2013-03-22T15:16:02Z</time>
      </trkpt>
      <trkpt lat="45.72711" lon="3.01303">
        <ele>909.59</ele>
        <time>2013-03-22T15:16:06Z</time>
      </trkpt>
      <trkpt lat="45.72711" lon="3.01333">
        <ele>909.49</ele>
        <time>2013-03-22T15:16:11Z</time>
      </trkpt>
      <trkpt lat="45.72712" lon="3.0136">
        <ele>908.85</ele>
        <time>2013-03-22T15:16:15Z</time>
      </trkpt>
      <trkpt lat="45.72714" lon="3.0139">
        <ele>908.06</ele>
        <time>2013-03-22T15:16:19Z</time>
      </trkpt>
      <trkpt lat="45.72712" lon="3.01418">
        <ele>907.46</ele>
        <time>2013-03-22T15:16:23Z</time>
      </trkpt>
      <trkpt lat="45.72712" lon="3.01445">
        <ele>906.51</ele>
        <time>2013-03-22T15:16:27Z</time>
      </trkpt>
      <trkpt lat="45.7271" lon="3.01474">
        <ele>905.11</ele>
        <time>2013-03-22T15:16:32Z</time>
      </trkpt>
      <trkpt lat="45.72705" lon="3.015">
        <ele>904.6</ele>
        <time>2013-03-22T15:16:36Z</time>
      </trkpt>
      <trkpt lat="45.72698" lon="3.01525">
        <ele>904.13</ele>
        <time>2013-03-22T15:16:40Z</time>
      </trkpt>
      <trkpt lat="45.72691" lon="3.01554">
        <ele>903.33</ele>
        <time>2013-03-22T15:16:45Z</time>
      </trkpt>
      <trkpt lat="45.72687" lon="3.01583">
        <ele>901.3</ele>
        <time>2013-03-22T15:16:50Z</time>
      </trkpt>
      <trkpt lat="45.72687" lon="3.01612">
        <ele>900.07</ele>
        <time>2013-03-22T15:16:55Z</time>
      </trkpt>
      <trkpt lat="45.72685" lon="3.01643">
        <ele>898.57</ele>
        <time>2013-03-22T15:16:59Z</time>
      </trkpt>
      <trkpt lat="45.72681" lon="3.01673">
        <ele>897.14</ele>
        <time>2013-03-22T15:17:03Z</time>
      </trkpt>
      <trkpt lat="45.72676" lon="3.01698">
        <ele>895.47</ele>
        <time>2013-03-22T15:17:07Z</time>
      </trkpt>
      <trkpt lat="45.72671" lon="3.01727">
        <ele>894.1</ele>
        <time>2013-03-22T15:17:11Z</time>
      </trkpt>
      <trkpt lat="45.72661" lon="3.0175">
        <ele>893.22</ele>
        <time>2013-03-22T15:17:15Z</time>
      </trkpt>
      <trkpt lat="45.7265" lon="3.01777">
        <ele>892.02</ele>
        <time>2013-03-22T15:17:20Z</time>
      </trkpt>
      <trkpt lat="45.72641" lon="3.018">
        <ele>890.86</ele>
        <time>2013-03-22T15:17:24Z</time>
      </trkpt>
      <trkpt lat="45.72632" lon="3.01826">
        <ele>889.51</ele>
        <time>2013-03-22T15:17:29Z</time>
      </trkpt>
      <trkpt lat="45.72624" lon="3.01851">
        <ele>888.6</ele>
        <time>2013-03-22T15:17:34Z</time>
      </trkpt>
      <trkpt lat="45.72617" lon="3.01881">
        <ele>888.27</ele>
        <time>2013-03-22T15:17:39Z</time>
      </trkpt>
      <trkpt lat="45.72609" lon="3.01908">
        <ele>888.14</ele>
        <time>2013-03-22T15:17:46Z</time>
      </trkpt>
      <trkpt lat="45.72586" lon="3.01907">
        <ele>886.05</ele>
        <time>2013-03-22T15:17:54Z</time>
      </trkpt>
      <trkpt lat="45.72567" lon="3.01896">
        <ele>884.62</ele>
        <time>2013-03-22T15:17:58Z</time>
      </trkpt>
      <trkpt lat="45.72549" lon="3.01888">
        <ele>883.32</ele>
        <time>2013-03-22T15:18:01Z</time>
      </trkpt>
      <trkpt lat="45.7253" lon="3.01882">
        <ele>881.92</ele>
        <time>2013-03-22T15:18:04Z</time>
      </trkpt>
      <trkpt lat="45.72508" lon="3.01878">
        <ele>880.62</ele>
        <time>2013-03-22T15:18:07Z</time>
      </trkpt>
      <trkpt lat="45.72487" lon="3.01874">
        <ele>879.67</ele>
        <time>2013-03-22T15:18:10Z</time>
      </trkpt>
      <trkpt lat="45.72467" lon="3.01872">
        <ele>879.04</ele>
        <time>2013-03-22T15:18:13Z</time>
      </trkpt>
      <trkpt lat="45.72448" lon="3.01869">
        <ele>878.48</ele>
        <time>2013-03-22T15:18:16Z</time>
      </trkpt>
      <trkpt lat="45.7243" lon="3.01867">
        <ele>878.31</ele>
        <time>2013-03-22T15:18:19Z</time>
      </trkpt>
      <trkpt lat="45.72411" lon="3.01864">
        <ele>878.22</ele>
        <time>2013-03-22T15:18:22Z</time>
      </trkpt>
      <trkpt lat="45.72393" lon="3.01861">
        <ele>877.98</ele>
        <time>2013-03-22T15:18:25Z</time>
      </trkpt>
      <trkpt lat="45.72374" lon="3.01858">
        <ele>877.54</ele>
        <time>2013-03-22T15:18:28Z</time>
      </trkpt>
      <trkpt lat="45.72355" lon="3.01856">
        <ele>876.84</ele>
        <time>2013-03-22T15:18:31Z</time>
      </trkpt>
      <trkpt lat="45.72335" lon="3.01853">
        <ele>875.96</ele>
        <time>2013-03-22T15:18:34Z</time>
      </trkpt>
      <trkpt lat="45.72314" lon="3.0185">
        <ele>874.96</ele>
        <time>2013-03-22T15:18:37Z</time>
      </trkpt>
      <trkpt lat="45.72293" lon="3.01846">
        <ele>873.96</ele>
        <time>2013-03-22T15:18:40Z</time>
      </trkpt>
      <trkpt lat="45.72271" lon="3.01843">
        <ele>872.88</ele>
        <time>2013-03-22T15:18:43Z</time>
      </trkpt>
      <trkpt lat="45.72249" lon="3.01839">
        <ele>871.48</ele>
        <time>2013-03-22T15:18:46Z</time>
      </trkpt>
      <trkpt lat="45.72225" lon="3.01835">
        <ele>869.86</ele>
        <time>2013-03-22T15:18:49Z</time>
      </trkpt>
      <trkpt lat="45.722" lon="3.01832">
        <ele>867.96</ele>
        <time>2013-03-22T15:18:52Z</time>
      </trkpt>
      <trkpt lat="45.72174" lon="3.01828">
        <ele>866.18</ele>
        <time>2013-03-22T15:18:55Z</time>
      </trkpt>
      <trkpt lat="45.72153" lon="3.01825">
        <ele>864.8</ele>
        <time>2013-03-22T15:18:58Z</time>
      </trkpt>
      <trkpt lat="45.72137" lon="3.0181">
        <ele>864.04</ele>
        <time>2013-03-22T15:19:03Z</time>
      </trkpt>
      <trkpt lat="45.72142" lon="3.01784">
        <ele>864.83</ele>
        <time>2013-03-22T15:19:13Z</time>
      </trkpt>
      <trkpt lat="45.72153" lon="3.01762">
        <ele>866.02</ele>
        <time>2013-03-22T15:19:21Z</time>
      </trkpt>
      <trkpt lat="45.72165" lon="3.01742">
        <ele>869.27</ele>
        <time>2013-03-22T15:19:29Z</time>
      </trkpt>
      <trkpt lat="45.72177" lon="3.01719">
        <ele>872.3</ele>
        <time>2013-03-22T15:19:37Z</time>
      </trkpt>
      <trkpt lat="45.72185" lon="3.01696">
        <ele>874.29</ele>
        <time>2013-03-22T15:19:47Z</time>
      </trkpt>
    </trkseg>
  </trk>
</gpx>